createdAt,value
2017-07-09T00:00:36.523Z,97.52
2017-07-09T00:01:47.043Z,97.81
2017-07-09T00:02:57.307Z,97.52
2017-07-09T00:04:07.572Z,97.81
2017-07-09T00:05:17.863Z,98.1
2017-07-09T00:06:27.511Z,98
2017-07-09T00:07:37.712Z,98
2017-07-09T00:08:47.648Z,98
2017-07-09T00:09:57.338Z,98
2017-07-09T00:11:07.615Z,97.9
2017-07-09T00:12:17.572Z,98
2017-07-09T00:13:27.772Z,98.19
2017-07-09T00:14:38.046Z,97.81
2017-07-09T00:15:48.317Z,97.81
2017-07-09T00:16:57.626Z,98.19
2017-07-09T00:18:07.899Z,97.81
2017-07-09T00:19:18.106Z,98
2017-07-09T00:20:28.385Z,98.19
2017-07-09T00:21:38.659Z,97.81
2017-07-09T00:22:48.942Z,97.81
2017-07-09T00:23:59.203Z,98
2017-07-09T00:25:09.785Z,97.81
2017-07-09T00:26:19.409Z,98.19
2017-07-09T00:27:29.365Z,98.19
2017-07-09T00:28:39.613Z,98.19
2017-07-09T00:29:49.905Z,97.9
2017-07-09T00:31:00.112Z,98
2017-07-09T00:32:10.381Z,97.81
2017-07-09T00:33:20.647Z,97.81
2017-07-09T00:34:30.926Z,98.19
2017-07-09T00:35:41.180Z,97.33
2017-07-09T00:36:51.719Z,97.23
2017-07-09T00:38:01.678Z,97.47
2017-07-09T00:39:11.635Z,98.14
2017-07-09T00:40:21.591Z,98.43
2017-07-09T00:41:31.863Z,97.95
2017-07-09T00:42:42.065Z,98.33
2017-07-09T00:43:52.381Z,98.33
2017-07-09T00:45:02.673Z,98.91
2017-07-09T00:46:12.950Z,98.62
2017-07-09T00:47:23.210Z,98.52
2017-07-09T00:48:33.722Z,98.14
2017-07-09T00:49:43.981Z,98.52
2017-07-09T00:50:53.643Z,98.33
2017-07-09T00:52:03.938Z,98.62
2017-07-09T00:53:14.209Z,97.95
2017-07-09T00:54:24.423Z,98.52
2017-07-09T00:55:34.689Z,98.14
2017-07-09T00:56:44.963Z,98.52
2017-07-09T00:57:54.935Z,97.09
2017-07-09T00:59:05.193Z,98.52
2017-07-09T01:00:15.411Z,98.33
2017-07-09T01:01:25.050Z,97.28
2017-07-09T01:02:35.329Z,98.24
2017-07-09T01:03:45.284Z,97.85
2017-07-09T01:04:55.554Z,97.85
2017-07-09T01:06:05.748Z,97.66
2017-07-09T01:07:16.012Z,97.95
2017-07-09T01:08:26.282Z,97.66
2017-07-09T01:09:36.543Z,97.76
2017-07-09T01:10:46.826Z,97.28
2017-07-09T01:11:57.352Z,98.05
2017-07-09T01:13:07.610Z,97.18
2017-07-09T01:14:17.877Z,97.56
2017-07-09T01:15:28.158Z,97.18
2017-07-09T01:16:38.424Z,97.47
2017-07-09T01:17:48.958Z,97.38
2017-07-09T01:18:58.901Z,97.47
2017-07-09T01:20:09.185Z,97.47
2017-07-09T01:21:19.456Z,97.38
2017-07-09T01:22:29.734Z,97.28
2017-07-09T01:23:40.286Z,97.47
2017-07-09T01:24:50.558Z,97.38
2017-07-09T01:26:00.830Z,97.38
2017-07-09T01:27:11.085Z,97.38
2017-07-09T01:28:21.027Z,97.28
2017-07-09T01:29:31.275Z,97.28
2017-07-09T01:30:41.555Z,97.28
2017-07-09T01:31:51.516Z,97.28
2017-07-09T01:33:01.784Z,96.99
2017-07-09T01:34:11.722Z,97.28
2017-07-09T01:35:21.914Z,96.8
2017-07-09T01:36:31.541Z,97.09
2017-07-09T01:37:41.813Z,97.18
2017-07-09T01:38:52.098Z,97.52
2017-07-09T01:40:02.067Z,97.18
2017-07-09T01:41:12.269Z,97.56
2017-07-09T01:42:22.225Z,97.18
2017-07-09T01:43:32.497Z,97.56
2017-07-09T01:44:42.771Z,97.23
2017-07-09T01:45:53.044Z,97.33
2017-07-09T01:47:03.568Z,97.04
2017-07-09T01:48:13.517Z,97.23
2017-07-09T01:49:23.803Z,97.42
2017-07-09T01:50:34.071Z,97.33
2017-07-09T01:51:44.350Z,97.23
2017-07-09T01:52:54.557Z,97.04
2017-07-09T01:54:04.528Z,96.94
2017-07-09T01:55:14.808Z,97.23
2017-07-09T01:56:24.755Z,96.47
2017-07-09T01:57:35.034Z,97.23
2017-07-09T01:58:45.555Z,96.27
2017-07-09T01:59:55.518Z,96.56
2017-07-09T02:01:05.784Z,94.64
2017-07-09T02:02:15.740Z,95.03
2017-07-09T02:03:25.376Z,93.78
2017-07-09T02:04:35.908Z,93.49
2017-07-09T02:05:46.194Z,93.02
2017-07-09T02:06:56.150Z,92.92
2017-07-09T02:08:06.419Z,92.63
2017-07-09T02:09:16.701Z,92.44
2017-07-09T02:10:27.223Z,92.15
2017-07-09T02:11:37.507Z,91.39
2017-07-09T02:12:47.773Z,91.58
2017-07-09T02:13:58.049Z,91.77
2017-07-09T02:15:08.310Z,91.39
2017-07-09T02:16:18.828Z,91.49
2017-07-09T02:17:29.093Z,91.19
2017-07-09T02:18:39.363Z,91.29
2017-07-09T02:19:49.639Z,90.72
2017-07-09T02:20:59.920Z,91
2017-07-09T02:22:09.866Z,91.1
2017-07-09T02:23:20.134Z,91.39
2017-07-09T02:24:30.403Z,91.58
2017-07-09T02:25:40.668Z,91.29
2017-07-09T02:26:50.619Z,91.29
2017-07-09T02:28:01.199Z,91.39
2017-07-09T02:29:11.542Z,90.91
2017-07-09T02:30:21.510Z,91
2017-07-09T02:31:31.452Z,91
2017-07-09T02:32:41.398Z,91.1
2017-07-09T02:33:51.604Z,90.81
2017-07-09T02:35:01.878Z,91.1
2017-07-09T02:36:11.814Z,91.19
2017-07-09T02:37:21.770Z,90.81
2017-07-09T02:38:32.041Z,91.39
2017-07-09T02:39:42.237Z,91.53
2017-07-09T02:40:52.207Z,91.53
2017-07-09T02:42:02.178Z,91.63
2017-07-09T02:43:12.139Z,91.34
2017-07-09T02:44:22.094Z,91.34
2017-07-09T02:45:32.617Z,91.25
2017-07-09T02:46:42.931Z,91.05
2017-07-09T02:47:53.200Z,91.25
2017-07-09T02:49:03.463Z,91.05
2017-07-09T02:50:13.418Z,91.34
2017-07-09T02:51:23.920Z,91.25
2017-07-09T02:52:34.213Z,91.63
2017-07-09T02:53:44.486Z,91.53
2017-07-09T02:54:54.752Z,91.82
2017-07-09T02:56:04.702Z,91.92
2017-07-09T02:57:15.230Z,91.63
2017-07-09T02:58:25.499Z,91.63
2017-07-09T02:59:35.737Z,92.21
2017-07-09T03:00:45.996Z,92.11
2017-07-09T03:01:56.259Z,92.11
2017-07-09T03:03:06.777Z,92.4
2017-07-09T03:04:17.082Z,92.21
2017-07-09T03:05:27.371Z,92.01
2017-07-09T03:06:37.648Z,92.21
2017-07-09T03:07:46.973Z,92.4
2017-07-09T03:08:57.172Z,92.3
2017-07-09T03:10:06.815Z,92.21
2017-07-09T03:11:17.075Z,91.82
2017-07-09T03:12:27.344Z,92.87
2017-07-09T03:13:37.607Z,93.07
2017-07-09T03:14:48.125Z,92.4
2017-07-09T03:15:58.077Z,91.82
2017-07-09T03:17:08.338Z,92.11
2017-07-09T03:18:18.347Z,92.11
2017-07-09T03:19:28.599Z,92.3
2017-07-09T03:20:38.827Z,92.3
2017-07-09T03:21:49.098Z,92.11
2017-07-09T03:22:59.368Z,92.3
2017-07-09T03:24:09.640Z,92.01
2017-07-09T03:25:19.589Z,92.11
2017-07-09T03:26:30.121Z,92.21
2017-07-09T03:27:40.396Z,92.58
2017-07-09T03:28:50.656Z,92.68
2017-07-09T03:30:00.623Z,92.87
2017-07-09T03:31:10.565Z,92.11
2017-07-09T03:32:20.757Z,92.58
2017-07-09T03:33:31.040Z,92.11
2017-07-09T03:34:41.308Z,92.21
2017-07-09T03:35:51.585Z,92.21
2017-07-09T03:37:01.550Z,92.21
2017-07-09T03:38:12.070Z,92.01
2017-07-09T03:39:22.343Z,92.11
2017-07-09T03:40:32.306Z,91.82
2017-07-09T03:41:42.260Z,91.25
2017-07-09T03:42:52.541Z,91.63
2017-07-09T03:44:03.116Z,91.72
2017-07-09T03:45:13.377Z,92.11
2017-07-09T03:46:23.318Z,92.01
2017-07-09T03:47:33.284Z,92.11
2017-07-09T03:48:43.228Z,91.82
2017-07-09T03:49:53.430Z,92.4
2017-07-09T03:51:03.699Z,92.21
2017-07-09T03:52:13.651Z,91.92
2017-07-09T03:53:23.909Z,92.01
2017-07-09T03:54:34.168Z,91.72
2017-07-09T03:55:44.432Z,91.63
2017-07-09T03:56:54.724Z,92.21
2017-07-09T03:58:04.364Z,92.87
2017-07-09T03:59:14.633Z,92.87
2017-07-09T04:00:24.922Z,92.68
2017-07-09T04:01:35.440Z,92.68
2017-07-09T04:02:45.713Z,92.4
2017-07-09T04:03:55.659Z,92.21
2017-07-09T04:05:05.608Z,92.4
2017-07-09T04:06:15.874Z,92.11
2017-07-09T04:07:26.387Z,92.11
2017-07-09T04:08:36.640Z,92.21
2017-07-09T04:09:46.595Z,92.3
2017-07-09T04:10:56.879Z,92.4
2017-07-09T04:12:07.164Z,91.82
2017-07-09T04:13:17.685Z,92.01
2017-07-09T04:14:27.964Z,91.63
2017-07-09T04:15:38.239Z,91.92
2017-07-09T04:16:48.515Z,91.25
2017-07-09T04:17:58.456Z,92.3
2017-07-09T04:19:08.668Z,92.01
2017-07-09T04:20:18.950Z,92.21
2017-07-09T04:21:29.215Z,92.21
2017-07-09T04:22:39.481Z,91.25
2017-07-09T04:23:49.410Z,91.72
2017-07-09T04:24:59.603Z,91.15
2017-07-09T04:26:09.865Z,91.44
2017-07-09T04:27:20.135Z,91.34
2017-07-09T04:28:30.085Z,90.86
2017-07-09T04:29:40.370Z,90.67
2017-07-09T04:30:50.890Z,90.48
2017-07-09T04:32:00.868Z,90.19
2017-07-09T04:33:11.126Z,89.33
2017-07-09T04:34:20.769Z,89.57
2017-07-09T04:35:30.712Z,88.85
2017-07-09T04:36:40.919Z,89.47
2017-07-09T04:37:51.191Z,88.9
2017-07-09T04:39:01.146Z,89.66
2017-07-09T04:40:11.091Z,89.09
2017-07-09T04:41:21.362Z,88.9
2017-07-09T04:42:31.874Z,88.23
2017-07-09T04:43:41.828Z,88.42
2017-07-09T04:44:51.784Z,87.65
2017-07-09T04:46:01.740Z,88.32
2017-07-09T04:47:12.001Z,88.03
2017-07-09T04:48:22.190Z,88.51
2017-07-09T04:49:32.457Z,88.13
2017-07-09T04:50:42.744Z,88.51
2017-07-09T04:51:53.011Z,88.23
2017-07-09T04:53:02.638Z,87.55
2017-07-09T04:54:12.829Z,88.13
2017-07-09T04:55:23.098Z,87.74
2017-07-09T04:56:33.369Z,87.74
2017-07-09T04:57:43.643Z,88.23
2017-07-09T04:58:53.923Z,88.03
2017-07-09T05:00:04.479Z,87.84
2017-07-09T05:01:14.743Z,87.08
2017-07-09T05:02:25.005Z,87.79
2017-07-09T05:03:34.946Z,87.5
2017-07-09T05:04:45.220Z,87.79
2017-07-09T05:05:55.793Z,87.21
2017-07-09T05:07:06.052Z,86.54
2017-07-09T05:08:16.001Z,86.5
2017-07-09T05:09:25.950Z,86.6
2017-07-09T05:10:36.221Z,86.6
2017-07-09T05:11:46.748Z,87.02
2017-07-09T05:12:57.038Z,87.08
2017-07-09T05:14:07.314Z,86.88
2017-07-09T05:15:17.595Z,86.98
2017-07-09T05:16:27.877Z,87.08
2017-07-09T05:17:38.409Z,87.6
2017-07-09T05:18:47.733Z,87.79
2017-07-09T05:19:58.013Z,87.46
2017-07-09T05:21:08.356Z,87.41
2017-07-09T05:22:18.661Z,87.12
2017-07-09T05:23:29.183Z,86.83
2017-07-09T05:24:39.124Z,86.83
2017-07-09T05:25:49.389Z,87.02
2017-07-09T05:26:59.665Z,86.25
2017-07-09T05:28:09.620Z,86.35
2017-07-09T05:29:20.142Z,85.97
2017-07-09T05:30:30.409Z,85.78
2017-07-09T05:31:40.684Z,86.54
2017-07-09T05:32:50.968Z,86.16
2017-07-09T05:34:00.921Z,85.88
2017-07-09T05:35:11.452Z,86.16
2017-07-09T05:36:21.425Z,85.88
2017-07-09T05:37:31.681Z,85.78
2017-07-09T05:38:41.940Z,85.72
2017-07-09T05:39:52.215Z,85.97
2017-07-09T05:41:02.731Z,85.72
2017-07-09T05:42:12.993Z,85.21
2017-07-09T05:43:23.266Z,84.95
2017-07-09T05:44:33.197Z,84.28
2017-07-09T05:45:43.144Z,85.05
2017-07-09T05:46:53.334Z,85.58
2017-07-09T05:48:03.597Z,85.78
2017-07-09T05:49:13.560Z,85.88
2017-07-09T05:50:23.866Z,86.07
2017-07-09T05:51:33.806Z,86.07
2017-07-09T05:52:44.022Z,85.88
2017-07-09T05:53:53.982Z,85.58
2017-07-09T05:55:04.249Z,86.11
2017-07-09T05:56:14.208Z,85.92
2017-07-09T05:57:24.467Z,85.15
2017-07-09T05:58:35.043Z,85.25
2017-07-09T05:59:45.331Z,85.72
2017-07-09T06:00:55.587Z,85.44
2017-07-09T06:02:05.542Z,85.34
2017-07-09T06:03:15.497Z,85.38
2017-07-09T06:04:26.020Z,84.58
2017-07-09T06:05:36.282Z,84.23
2017-07-09T06:06:46.549Z,83.94
2017-07-09T06:07:56.824Z,83.65
2017-07-09T06:09:07.084Z,84.33
2017-07-09T06:10:17.284Z,84.04
2017-07-09T06:11:27.552Z,82.89
2017-07-09T06:12:37.530Z,82.98
2017-07-09T06:13:47.809Z,83.37
2017-07-09T06:14:58.070Z,83.65
2017-07-09T06:16:08.274Z,83.08
2017-07-09T06:17:18.554Z,83.08
2017-07-09T06:18:28.828Z,82.7
2017-07-09T06:19:38.782Z,82.98
2017-07-09T06:20:48.745Z,82.6
2017-07-09T06:21:58.998Z,82.89
2017-07-09T06:23:08.948Z,82.7
2017-07-09T06:24:19.204Z,82.12
2017-07-09T06:25:29.181Z,81.93
2017-07-09T06:26:39.449Z,81.45
2017-07-09T06:27:49.968Z,80.87
2017-07-09T06:29:00.226Z,81.49
2017-07-09T06:30:10.506Z,81.2
2017-07-09T06:31:20.156Z,79.96
2017-07-09T06:32:30.419Z,81.3
2017-07-09T06:33:39.993Z,79.67
2017-07-09T06:34:50.258Z,79.76
2017-07-09T06:36:00.213Z,79.28
2017-07-09T06:37:10.154Z,78.52
2017-07-09T06:38:20.096Z,78.23
2017-07-09T06:39:30.673Z,79.28
2017-07-09T06:40:40.941Z,78.13
2017-07-09T06:41:51.209Z,79.32
2017-07-09T06:43:01.483Z,79.32
2017-07-09T06:44:11.120Z,79.99
2017-07-09T06:45:21.653Z,79.71
2017-07-09T06:46:31.939Z,79.52
2017-07-09T06:47:42.209Z,79.52
2017-07-09T06:48:52.488Z,79.36
2017-07-09T06:50:02.774Z,79.36
2017-07-09T06:51:13.361Z,78.4
2017-07-09T06:52:23.319Z,78.69
2017-07-09T06:53:33.589Z,79.36
2017-07-09T06:54:43.866Z,79.36
2017-07-09T06:55:54.200Z,78.21
2017-07-09T06:57:04.725Z,77.25
2017-07-09T06:58:14.994Z,78.5
2017-07-09T06:59:25.261Z,78.25
2017-07-09T07:00:35.541Z,77.19
2017-07-09T07:01:45.809Z,76.14
2017-07-09T07:02:56.337Z,75.94
2017-07-09T07:04:06.621Z,75.65
2017-07-09T07:05:16.578Z,76.23
2017-07-09T07:06:26.222Z,76.14
2017-07-09T07:07:36.499Z,76.42
2017-07-09T07:08:47.029Z,76.04
2017-07-09T07:09:56.980Z,77
2017-07-09T07:11:06.937Z,76.14
2017-07-09T07:12:17.207Z,76.81
2017-07-09T07:13:27.164Z,76.9
2017-07-09T07:14:37.675Z,76.19
2017-07-09T07:15:47.651Z,76.57
2017-07-09T07:16:57.906Z,77.34
2017-07-09T07:18:08.180Z,77.34
2017-07-09T07:19:18.449Z,77.63
2017-07-09T07:20:28.715Z,76.52
2017-07-09T07:21:38.690Z,76.32
2017-07-09T07:22:48.657Z,76.9
2017-07-09T07:23:58.928Z,75.84
2017-07-09T07:25:08.894Z,74.63
2017-07-09T07:26:19.437Z,74.44
2017-07-09T07:27:29.708Z,74.05
2017-07-09T07:28:39.999Z,74.44
2017-07-09T07:29:50.278Z,73.86
2017-07-09T07:31:00.549Z,73.77
2017-07-09T07:32:11.091Z,74.15
2017-07-09T07:33:21.391Z,74.05
2017-07-09T07:34:31.355Z,73.77
2017-07-09T07:35:41.636Z,74.44
2017-07-09T07:36:51.594Z,75.11
2017-07-09T07:38:01.824Z,73.77
2017-07-09T07:39:12.103Z,73.28
2017-07-09T07:40:22.402Z,73.57
2017-07-09T07:41:32.668Z,73.38
2017-07-09T07:42:42.947Z,73.09
2017-07-09T07:43:53.194Z,73.19
2017-07-09T07:45:03.505Z,72.9
2017-07-09T07:46:13.783Z,72.9
2017-07-09T07:47:23.753Z,71.94
2017-07-09T07:48:34.005Z,72.52
2017-07-09T07:49:44.528Z,72.8
2017-07-09T07:50:54.800Z,72.9
2017-07-09T07:52:04.780Z,72.71
2017-07-09T07:53:15.046Z,72.9
2017-07-09T07:54:25.313Z,72.61
2017-07-09T07:55:35.892Z,73.28
2017-07-09T07:56:46.168Z,71.97
2017-07-09T07:57:56.440Z,72.07
2017-07-09T07:59:06.069Z,72.17
2017-07-09T08:00:16.337Z,71.59
2017-07-09T08:01:26.855Z,71.3
2017-07-09T08:02:37.146Z,71.01
2017-07-09T08:03:47.100Z,71.97
2017-07-09T08:04:57.378Z,70.15
2017-07-09T08:06:07.023Z,70.43
2017-07-09T08:07:17.530Z,70.92
2017-07-09T08:08:27.798Z,70.53
2017-07-09T08:09:37.774Z,69.6
2017-07-09T08:10:47.734Z,69.6
2017-07-09T08:11:58.017Z,68.35
2017-07-09T08:13:08.527Z,68.64
2017-07-09T08:14:18.804Z,68.93
2017-07-09T08:15:29.070Z,68.84
2017-07-09T08:16:39.343Z,70.37
2017-07-09T08:17:49.654Z,70.43
2017-07-09T08:18:59.913Z,69.89
2017-07-09T08:20:10.177Z,70.05
2017-07-09T08:21:20.159Z,69.7
2017-07-09T08:22:30.443Z,69.6
2017-07-09T08:23:40.723Z,69.02
2017-07-09T08:24:50.924Z,68.74
2017-07-09T08:26:00.874Z,69.18
2017-07-09T08:27:11.147Z,69.28
2017-07-09T08:28:21.448Z,69.28
2017-07-09T08:29:31.721Z,69.95
2017-07-09T08:30:42.002Z,69.41
2017-07-09T08:31:52.280Z,69.22
2017-07-09T08:33:02.563Z,68.64
2017-07-09T08:34:12.847Z,69.22
2017-07-09T08:35:23.133Z,68.64
2017-07-09T08:36:33.654Z,68.54
2017-07-09T08:37:43.298Z,68.54
2017-07-09T08:38:53.569Z,68.44
2017-07-09T08:40:03.903Z,68.84
2017-07-09T08:41:14.178Z,67.61
2017-07-09T08:42:24.751Z,67.71
2017-07-09T08:43:35.041Z,67.81
2017-07-09T08:44:45.319Z,68.35
2017-07-09T08:45:54.973Z,68.84
2017-07-09T08:47:04.925Z,68.93
2017-07-09T08:48:15.511Z,67.77
2017-07-09T08:49:25.783Z,68.64
2017-07-09T08:50:36.051Z,68.48
2017-07-09T08:51:45.704Z,68.19
2017-07-09T08:52:55.993Z,68.44
2017-07-09T08:54:06.575Z,69.51
2017-07-09T08:55:16.868Z,70.28
2017-07-09T08:56:27.130Z,71.24
2017-07-09T08:57:37.406Z,71.34
2017-07-09T08:58:47.377Z,71.72
2017-07-09T08:59:57.604Z,72.88
2017-07-09T09:01:07.574Z,73.07
2017-07-09T09:02:17.865Z,73.13
2017-07-09T09:03:27.830Z,73.22
2017-07-09T09:04:38.122Z,73.99
2017-07-09T09:05:48.659Z,74.57
2017-07-09T09:06:58.684Z,73.99
2017-07-09T09:08:08.962Z,74.67
2017-07-09T09:09:19.237Z,74.67
2017-07-09T09:10:29.508Z,74.38
2017-07-09T09:11:40.017Z,73.9
2017-07-09T09:12:50.294Z,75.05
2017-07-09T09:14:00.565Z,74.73
2017-07-09T09:15:10.842Z,74.34
2017-07-09T09:16:20.804Z,74.34
2017-07-09T09:17:31.377Z,74.92
2017-07-09T09:18:41.670Z,75.11
2017-07-09T09:19:51.630Z,75.49
2017-07-09T09:21:01.588Z,75.69
2017-07-09T09:22:11.233Z,75.88
2017-07-09T09:23:21.125Z,75.79
2017-07-09T09:24:30.772Z,74.63
2017-07-09T09:25:40.416Z,74.73
2017-07-09T09:26:50.369Z,74.34
2017-07-09T09:28:00.340Z,74.44
2017-07-09T09:29:10.602Z,74.54
2017-07-09T09:30:20.864Z,74.92
2017-07-09T09:31:31.137Z,75.49
2017-07-09T09:32:41.096Z,75.21
2017-07-09T09:33:50.749Z,75.21
2017-07-09T09:35:01.269Z,75.59
2017-07-09T09:36:11.548Z,75.49
2017-07-09T09:37:21.825Z,75.79
2017-07-09T09:38:31.790Z,76.17
2017-07-09T09:39:41.444Z,75.94
2017-07-09T09:40:51.986Z,77.19
2017-07-09T09:42:01.633Z,77.19
2017-07-09T09:43:11.914Z,77.58
2017-07-09T09:44:21.930Z,77
2017-07-09T09:45:32.198Z,77.38
2017-07-09T09:46:42.458Z,77.38
2017-07-09T09:47:52.098Z,76.42
2017-07-09T09:49:02.369Z,76.81
2017-07-09T09:50:12.319Z,76.14
2017-07-09T09:51:22.608Z,76.32
2017-07-09T09:52:32.819Z,76.52
2017-07-09T09:53:42.465Z,76.81
2017-07-09T09:54:52.440Z,76.9
2017-07-09T09:56:02.696Z,77.29
2017-07-09T09:57:12.993Z,76.71
2017-07-09T09:58:23.525Z,76.52
2017-07-09T09:59:33.470Z,76.71
2017-07-09T10:00:43.136Z,76.42
2017-07-09T10:01:53.097Z,76.32
2017-07-09T10:03:03.375Z,76.42
2017-07-09T10:04:13.907Z,76.14
2017-07-09T10:05:24.208Z,76.46
2017-07-09T10:06:34.513Z,76.42
2017-07-09T10:07:44.152Z,75.79
2017-07-09T10:08:54.435Z,75.4
2017-07-09T10:10:04.956Z,75.11
2017-07-09T10:11:14.917Z,75.4
2017-07-09T10:12:25.185Z,75.27
2017-07-09T10:13:35.147Z,74.73
2017-07-09T10:14:45.127Z,74.92
2017-07-09T10:15:55.337Z,74.15
2017-07-09T10:17:05.624Z,73.96
2017-07-09T10:18:15.970Z,72.65
2017-07-09T10:19:26.245Z,72.07
2017-07-09T10:20:36.518Z,71.88
2017-07-09T10:21:46.783Z,72.3
2017-07-09T10:22:57.086Z,72.11
2017-07-09T10:24:07.354Z,71.62
2017-07-09T10:25:17.311Z,71.24
2017-07-09T10:26:27.261Z,71.72
2017-07-09T10:27:37.788Z,70.98
2017-07-09T10:28:47.758Z,70.12
2017-07-09T10:29:58.014Z,70.21
2017-07-09T10:31:07.672Z,69.64
2017-07-09T10:32:17.976Z,69.29
2017-07-09T10:33:28.190Z,67.74
2017-07-09T10:34:38.470Z,67.2
2017-07-09T10:35:48.421Z,66.43
2017-07-09T10:36:58.715Z,66.94
2017-07-09T10:38:08.996Z,66.17
2017-07-09T10:39:19.573Z,65.91
2017-07-09T10:40:29.859Z,63.7
2017-07-09T10:41:39.829Z,63.63
2017-07-09T10:42:49.795Z,63.34
2017-07-09T10:44:00.087Z,62.76
2017-07-09T10:45:10.623Z,62.76
2017-07-09T10:46:20.902Z,63.15
2017-07-09T10:47:30.852Z,63.05
2017-07-09T10:48:40.816Z,63.15
2017-07-09T10:49:51.100Z,63.89
2017-07-09T10:51:01.687Z,64.4
2017-07-09T10:52:11.985Z,64.47
2017-07-09T10:53:21.942Z,64.47
2017-07-09T10:54:32.215Z,65.05
2017-07-09T10:55:42.487Z,64.76
2017-07-09T10:56:53.082Z,64.66
2017-07-09T10:58:03.353Z,64.47
2017-07-09T10:59:13.308Z,65.01
2017-07-09T11:00:23.599Z,65.2
2017-07-09T11:01:33.562Z,65.88
2017-07-09T11:02:44.093Z,65.01
2017-07-09T11:03:54.364Z,64.66
2017-07-09T11:05:04.336Z,64.56
2017-07-09T11:06:14.619Z,64.95
2017-07-09T11:07:24.901Z,64.69
2017-07-09T11:08:35.426Z,61.63
2017-07-09T11:09:45.382Z,59.8
2017-07-09T11:10:55.660Z,60.31
2017-07-09T11:12:05.940Z,59.66
2017-07-09T11:13:16.227Z,59.56
2017-07-09T11:14:26.769Z,59.31
2017-07-09T11:15:36.726Z,57.79
2017-07-09T11:16:47.022Z,55.4
2017-07-09T11:17:57.307Z,53.58
2017-07-09T11:19:07.580Z,51.76
2017-07-09T11:20:18.109Z,50.82
2017-07-09T11:21:28.391Z,49
2017-07-09T11:22:38.662Z,49.61
2017-07-09T11:23:48.930Z,49.22
2017-07-09T11:24:58.868Z,48.85
2017-07-09T11:26:09.093Z,49.34
2017-07-09T11:27:19.400Z,50.65
2017-07-09T11:28:29.677Z,52.37
2017-07-09T11:29:39.313Z,54.28
2017-07-09T11:30:49.581Z,52.06
2017-07-09T11:31:59.795Z,50.6
2017-07-09T11:33:10.074Z,51.89
2017-07-09T11:34:20.055Z,50.04
2017-07-09T11:35:30.321Z,50.07
2017-07-09T11:36:40.307Z,47.76
2017-07-09T11:37:50.881Z,46.35
2017-07-09T11:39:01.407Z,46.18
2017-07-09T11:40:11.691Z,44.72
2017-07-09T11:41:21.686Z,44.16
2017-07-09T11:42:31.980Z,44.94
2017-07-09T11:43:42.206Z,44.43
2017-07-09T11:44:52.493Z,45.01
2017-07-09T11:46:02.783Z,45.4
2017-07-09T11:47:13.069Z,47.23
2017-07-09T11:48:23.356Z,46.33
2017-07-09T11:49:33.941Z,44.72
2017-07-09T11:50:44.238Z,42.82
2017-07-09T11:51:54.236Z,40.99
2017-07-09T11:53:04.524Z,41.67
2017-07-09T11:54:14.802Z,41.86
2017-07-09T11:55:25.352Z,40.03
2017-07-09T11:56:35.637Z,39.69
2017-07-09T11:57:45.600Z,39.41
2017-07-09T11:58:55.875Z,39.43
2017-07-09T12:00:05.834Z,38.35
2017-07-09T12:01:16.059Z,37.3
2017-07-09T12:02:26.030Z,37.52
2017-07-09T12:03:36.316Z,36.24
2017-07-09T12:04:45.976Z,38.69
2017-07-09T12:05:56.254Z,39.7
2017-07-09T12:07:06.165Z,39.8
2017-07-09T12:08:16.133Z,39.7
2017-07-09T12:09:26.411Z,37.09
2017-07-09T12:10:36.687Z,37.19
2017-07-09T12:11:46.666Z,36.33
2017-07-09T12:12:56.942Z,35.46
2017-07-09T12:14:07.240Z,36.05
2017-07-09T12:15:16.901Z,37.29
2017-07-09T12:16:27.178Z,39.57
2017-07-09T12:17:37.456Z,40.62
2017-07-09T12:18:47.677Z,40.42
2017-07-09T12:19:57.966Z,39.57
2017-07-09T12:21:08.259Z,40.64
2017-07-09T12:22:18.547Z,39.59
2017-07-09T12:23:28.512Z,39.37
2017-07-09T12:24:39.030Z,41.13
2017-07-09T12:25:49.341Z,42.18
2017-07-09T12:26:59.616Z,42.04
2017-07-09T12:28:09.923Z,44.04
2017-07-09T12:29:20.213Z,46.04
2017-07-09T12:30:30.785Z,45.84
2017-07-09T12:31:41.068Z,46.06
2017-07-09T12:32:51.044Z,45.17
2017-07-09T12:34:01.337Z,44.87
2017-07-09T12:35:11.314Z,44.51
2017-07-09T12:36:21.847Z,44.04
2017-07-09T12:37:32.213Z,41.93
2017-07-09T12:38:42.514Z,41.77
2017-07-09T12:39:52.475Z,40.45
2017-07-09T12:41:02.783Z,39.69
2017-07-09T12:42:13.335Z,40.45
2017-07-09T12:43:23.615Z,41.11
2017-07-09T12:44:33.942Z,40.33
2017-07-09T12:45:44.254Z,38.9
2017-07-09T12:46:54.237Z,39.12
2017-07-09T12:48:04.781Z,36.7
2017-07-09T12:49:14.751Z,36.33
2017-07-09T12:50:25.040Z,36.43
2017-07-09T12:51:35.001Z,37.77
2017-07-09T12:52:45.279Z,37.27
2017-07-09T12:53:55.815Z,37.96
2017-07-09T12:55:06.094Z,37.57
2017-07-09T12:56:16.376Z,36.04
2017-07-09T12:57:26.666Z,34.97
2017-07-09T12:58:36.950Z,34.23
2017-07-09T12:59:47.499Z,31.52
2017-07-09T13:00:57.809Z,31.26
2017-07-09T13:02:08.085Z,29.52
2017-07-09T13:03:18.379Z,28.86
2017-07-09T13:04:28.670Z,28.88
2017-07-09T13:05:38.890Z,28.89
2017-07-09T13:06:49.173Z,26.36
2017-07-09T13:07:59.504Z,26.77
2017-07-09T13:09:09.462Z,29
2017-07-09T13:10:19.749Z,31.38
2017-07-09T13:11:30.278Z,32.1
2017-07-09T13:12:40.310Z,31.42
2017-07-09T13:13:50.600Z,31.6
2017-07-09T13:15:00.884Z,31.52
2017-07-09T13:16:10.861Z,30.36
2017-07-09T13:17:21.409Z,30.39
2017-07-09T13:18:31.710Z,30.27
2017-07-09T13:19:41.673Z,30.27
2017-07-09T13:20:51.955Z,31.44
2017-07-09T13:22:02.215Z,32.68
2017-07-09T13:23:12.419Z,33.43
2017-07-09T13:24:22.683Z,32.84
2017-07-09T13:25:32.967Z,33.02
2017-07-09T13:26:43.260Z,34.19
2017-07-09T13:27:53.552Z,32.84
2017-07-09T13:29:04.101Z,31.59
2017-07-09T13:30:14.086Z,29.75
2017-07-09T13:31:24.381Z,30.47
2017-07-09T13:32:34.659Z,28.15
2017-07-09T13:33:44.642Z,28.85
2017-07-09T13:34:55.206Z,28.85
2017-07-09T13:36:05.492Z,28.06
2017-07-09T13:37:15.781Z,27.88
2017-07-09T13:38:26.073Z,27.01
2017-07-09T13:39:36.351Z,27.69
2017-07-09T13:40:46.877Z,26.7
2017-07-09T13:41:57.167Z,26.23
2017-07-09T13:43:07.453Z,25.27
2017-07-09T13:44:17.744Z,24.87
2017-07-09T13:45:28.035Z,25.57
2017-07-09T13:46:38.263Z,24.51
2017-07-09T13:47:48.225Z,24.12
2017-07-09T13:48:58.507Z,22.67
2017-07-09T13:50:08.794Z,23.47
2017-07-09T13:51:18.780Z,23.38
2017-07-09T13:52:29.045Z,22.97
2017-07-09T13:53:39.334Z,23.38
2017-07-09T13:54:49.300Z,24.06
2017-07-09T13:55:59.612Z,22
2017-07-09T13:57:09.581Z,21.61
2017-07-09T13:58:20.110Z,22.71
2017-07-09T13:59:30.425Z,22.81
2017-07-09T14:00:40.721Z,22.12
2017-07-09T14:01:51.006Z,22.71
2017-07-09T14:03:01.318Z,23.87
2017-07-09T14:04:11.855Z,24.71
2017-07-09T14:05:22.150Z,27.01
2017-07-09T14:06:32.427Z,27.88
2017-07-09T14:07:42.402Z,29.7
2017-07-09T14:08:52.706Z,29.77
2017-07-09T14:10:03.285Z,29.87
2017-07-09T14:11:13.553Z,28.61
2017-07-09T14:12:23.855Z,27.17
2017-07-09T14:13:34.135Z,26.8
2017-07-09T14:14:44.439Z,26.62
2017-07-09T14:15:54.985Z,25.74
2017-07-09T14:17:04.657Z,25.45
2017-07-09T14:18:14.934Z,25.27
2017-07-09T14:19:25.208Z,24.79
2017-07-09T14:20:35.503Z,25.57
2017-07-09T14:21:45.406Z,24.9
2017-07-09T14:22:55.392Z,24.02
2017-07-09T14:24:05.685Z,24.82
2017-07-09T14:25:15.989Z,25.28
2017-07-09T14:26:26.273Z,24.69
2017-07-09T14:27:36.788Z,26.36
2017-07-09T14:28:47.080Z,25.38
2017-07-09T14:29:57.396Z,25.28
2017-07-09T14:31:07.381Z,24.69
2017-07-09T14:32:17.673Z,24.69
2017-07-09T14:33:28.210Z,26.25
2017-07-09T14:34:37.558Z,27.97
2017-07-09T14:35:47.863Z,28.33
2017-07-09T14:36:57.830Z,27.83
2017-07-09T14:38:08.110Z,27.74
2017-07-09T14:39:18.021Z,27.42
2017-07-09T14:40:28.304Z,26.95
2017-07-09T14:41:38.272Z,26.17
2017-07-09T14:42:48.577Z,26.68
2017-07-09T14:43:58.552Z,26.86
2017-07-09T14:45:08.191Z,27.06
2017-07-09T14:46:18.494Z,27.24
2017-07-09T14:47:28.465Z,26.67
2017-07-09T14:48:38.755Z,27.35
2017-07-09T14:49:48.400Z,27.81
2017-07-09T14:50:58.930Z,27.03
2017-07-09T14:52:09.217Z,27.21
2017-07-09T14:53:19.489Z,27.01
2017-07-09T14:54:29.772Z,27.03
2017-07-09T14:55:40.072Z,27.91
2017-07-09T14:56:50.632Z,28.99
2017-07-09T14:58:00.613Z,29.45
2017-07-09T14:59:10.906Z,29.24
2017-07-09T15:00:20.547Z,28.77
2017-07-09T15:01:30.817Z,28.49
2017-07-09T15:02:41.426Z,28.09
2017-07-09T15:03:51.089Z,27.98
2017-07-09T15:05:01.059Z,27.11
2017-07-09T15:06:11.346Z,26.64
2017-07-09T15:07:21.644Z,27.15
2017-07-09T15:08:31.590Z,25.32